sensor_id;sensor_type;location;lat;lon;timestamp;P1;durP1;ratioP1;P2;durP2;ratioP2
5117;SDS011;2578;51.622;7.046;2022-10-16T00:01:26;3.50;;;2.70;;
5117;SDS011;2578;51.622;7.046;2022-10-16T00:03:53;3.60;;;3.00;;
5117;SDS011;2578;51.622;7.046;2022-10-16T00:06:20;4.37;;;3.70;;
5117;SDS011;2578;51.622;7.046;2022-10-16T00:08:47;3.40;;;2.47;;
5117;SDS011;2578;51.622;7.046;2022-10-16T00:11:17;3.33;;;2.30;;
5117;SDS011;2578;51.622;7.046;2022-10-16T00:13:48;3.30;;;2.60;;
5117;SDS011;2578;51.622;7.046;2022-10-16T00:16:16;4.43;;;2.70;;
5117;SDS011;2578;51.622;7.046;2022-10-16T00:18:43;6.23;;;3.27;;
5117;SDS011;2578;51.622;7.046;2022-10-16T00:21:09;3.50;;;2.50;;
5117;SDS011;2578;51.622;7.046;2022-10-16T00:23:38;4.63;;;3.27;;
5117;SDS011;2578;51.622;7.046;2022-10-16T00:26:05;5.83;;;3.33;;
5117;SDS011;2578;51.622;7.046;2022-10-16T00:28:36;4.93;;;4.10;;
5117;SDS011;2578;51.622;7.046;2022-10-16T00:31:03;3.30;;;2.30;;
5117;SDS011;2578;51.622;7.046;2022-10-16T00:33:34;3.37;;;2.43;;
5117;SDS011;2578;51.622;7.046;2022-10-16T00:36:01;3.70;;;2.60;;
5117;SDS011;2578;51.622;7.046;2022-10-16T00:38:28;3.57;;;2.73;;
5117;SDS011;2578;51.622;7.046;2022-10-16T00:40:54;5.00;;;2.93;;
5117;SDS011;2578;51.622;7.046;2022-10-16T00:46:26;3.40;;;2.43;;
5117;SDS011;2578;51.622;7.046;2022-10-16T00:49:11;3.37;;;2.40;;
5117;SDS011;2578;51.622;7.046;2022-10-16T00:51:43;3.40;;;2.50;;
5117;SDS011;2578;51.622;7.046;2022-10-16T00:54:13;3.33;;;2.40;;
5117;SDS011;2578;51.622;7.046;2022-10-16T00:56:42;3.70;;;2.97;;
5117;SDS011;2578;51.622;7.046;2022-10-16T00:59:18;3.70;;;2.47;;
5117;SDS011;2578;51.622;7.046;2022-10-16T01:01:46;3.20;;;2.20;;
5117;SDS011;2578;51.622;7.046;2022-10-16T01:04:11;3.57;;;2.63;;
5117;SDS011;2578;51.622;7.046;2022-10-16T01:12:09;3.23;;;2.20;;
5117;SDS011;2578;51.622;7.046;2022-10-16T01:14:48;3.30;;;2.10;;
5117;SDS011;2578;51.622;7.046;2022-10-16T01:22:23;3.33;;;2.30;;
5117;SDS011;2578;51.622;7.046;2022-10-16T01:24:55;3.70;;;2.70;;
5117;SDS011;2578;51.622;7.046;2022-10-16T01:27:29;3.30;;;2.30;;
5117;SDS011;2578;51.622;7.046;2022-10-16T01:32:44;3.50;;;2.50;;
5117;SDS011;2578;51.622;7.046;2022-10-16T01:38:03;3.27;;;2.10;;
5117;SDS011;2578;51.622;7.046;2022-10-16T01:40:33;3.30;;;2.20;;
5117;SDS011;2578;51.622;7.046;2022-10-16T01:43:10;3.33;;;2.40;;
5117;SDS011;2578;51.622;7.046;2022-10-16T01:45:39;4.33;;;2.90;;
5117;SDS011;2578;51.622;7.046;2022-10-16T01:48:06;3.60;;;2.50;;
5117;SDS011;2578;51.622;7.046;2022-10-16T01:50:35;4.87;;;3.23;;
5117;SDS011;2578;51.622;7.046;2022-10-16T01:53:05;3.30;;;2.30;;
5117;SDS011;2578;51.622;7.046;2022-10-16T01:55:34;4.43;;;3.00;;
5117;SDS011;2578;51.622;7.046;2022-10-16T01:58:04;3.80;;;2.90;;
5117;SDS011;2578;51.622;7.046;2022-10-16T02:00:32;4.00;;;2.70;;
5117;SDS011;2578;51.622;7.046;2022-10-16T02:03:01;3.97;;;3.10;;
5117;SDS011;2578;51.622;7.046;2022-10-16T02:08:07;3.30;;;2.13;;
5117;SDS011;2578;51.622;7.046;2022-10-16T02:10:34;3.30;;;2.30;;
5117;SDS011;2578;51.622;7.046;2022-10-16T02:13:06;3.40;;;2.40;;
5117;SDS011;2578;51.622;7.046;2022-10-16T02:15:43;3.80;;;2.70;;
5117;SDS011;2578;51.622;7.046;2022-10-16T02:18:09;3.40;;;2.50;;
5117;SDS011;2578;51.622;7.046;2022-10-16T02:23:26;3.50;;;2.60;;
5117;SDS011;2578;51.622;7.046;2022-10-16T02:25:58;3.33;;;2.40;;
5117;SDS011;2578;51.622;7.046;2022-10-16T02:28:30;3.33;;;2.30;;
5117;SDS011;2578;51.622;7.046;2022-10-16T02:31:04;3.30;;;2.20;;
5117;SDS011;2578;51.622;7.046;2022-10-16T02:33:35;3.30;;;2.20;;
5117;SDS011;2578;51.622;7.046;2022-10-16T02:36:03;3.40;;;2.40;;
5117;SDS011;2578;51.622;7.046;2022-10-16T02:38:30;3.60;;;2.60;;
5117;SDS011;2578;51.622;7.046;2022-10-16T02:40:56;5.87;;;4.50;;
5117;SDS011;2578;51.622;7.046;2022-10-16T02:43:21;4.97;;;2.90;;
5117;SDS011;2578;51.622;7.046;2022-10-16T02:45:47;3.40;;;2.40;;
5117;SDS011;2578;51.622;7.046;2022-10-16T02:48:13;3.50;;;2.50;;
5117;SDS011;2578;51.622;7.046;2022-10-16T02:50:38;3.40;;;2.70;;
5117;SDS011;2578;51.622;7.046;2022-10-16T02:53:04;3.50;;;2.53;;
5117;SDS011;2578;51.622;7.046;2022-10-16T02:55:29;7.10;;;3.00;;
5117;SDS011;2578;51.622;7.046;2022-10-16T02:57:55;3.50;;;2.70;;
5117;SDS011;2578;51.622;7.046;2022-10-16T03:00:21;3.33;;;2.40;;
5117;SDS011;2578;51.622;7.046;2022-10-16T03:02:47;3.30;;;2.30;;
5117;SDS011;2578;51.622;7.046;2022-10-16T03:05:12;3.23;;;2.20;;
5117;SDS011;2578;51.622;7.046;2022-10-16T03:07:39;3.30;;;2.40;;
5117;SDS011;2578;51.622;7.046;2022-10-16T03:10:04;3.30;;;2.30;;
5117;SDS011;2578;51.622;7.046;2022-10-16T03:12:30;3.30;;;2.40;;
5117;SDS011;2578;51.622;7.046;2022-10-16T03:14:56;4.00;;;2.80;;
5117;SDS011;2578;51.622;7.046;2022-10-16T03:17:22;3.80;;;2.70;;
5117;SDS011;2578;51.622;7.046;2022-10-16T03:19:48;3.77;;;3.03;;
5117;SDS011;2578;51.622;7.046;2022-10-16T03:22:14;3.33;;;2.40;;
5117;SDS011;2578;51.622;7.046;2022-10-16T03:24:39;3.37;;;2.50;;
5117;SDS011;2578;51.622;7.046;2022-10-16T03:27:05;3.60;;;2.80;;
5117;SDS011;2578;51.622;7.046;2022-10-16T03:29:31;3.40;;;2.43;;
5117;SDS011;2578;51.622;7.046;2022-10-16T03:31:58;3.40;;;2.47;;
5117;SDS011;2578;51.622;7.046;2022-10-16T03:34:24;3.40;;;2.50;;
5117;SDS011;2578;51.622;7.046;2022-10-16T03:36:50;3.30;;;2.37;;
5117;SDS011;2578;51.622;7.046;2022-10-16T03:39:16;3.43;;;2.50;;
5117;SDS011;2578;51.622;7.046;2022-10-16T03:41:42;3.50;;;2.40;;
5117;SDS011;2578;51.622;7.046;2022-10-16T03:44:07;3.23;;;2.20;;
5117;SDS011;2578;51.622;7.046;2022-10-16T03:46:33;3.30;;;2.20;;
5117;SDS011;2578;51.622;7.046;2022-10-16T03:48:59;3.27;;;2.30;;
5117;SDS011;2578;51.622;7.046;2022-10-16T03:51:24;3.33;;;2.30;;
5117;SDS011;2578;51.622;7.046;2022-10-16T03:53:50;3.40;;;2.50;;
5117;SDS011;2578;51.622;7.046;2022-10-16T03:56:15;3.30;;;2.40;;
5117;SDS011;2578;51.622;7.046;2022-10-16T03:58:42;3.37;;;2.50;;
5117;SDS011;2578;51.622;7.046;2022-10-16T04:01:07;3.90;;;2.80;;
5117;SDS011;2578;51.622;7.046;2022-10-16T04:03:33;3.50;;;2.80;;
5117;SDS011;2578;51.622;7.046;2022-10-16T04:05:59;3.50;;;2.90;;
5117;SDS011;2578;51.622;7.046;2022-10-16T04:08:24;3.30;;;2.40;;
5117;SDS011;2578;51.622;7.046;2022-10-16T04:10:50;3.40;;;2.50;;
5117;SDS011;2578;51.622;7.046;2022-10-16T04:13:16;3.33;;;2.33;;
5117;SDS011;2578;51.622;7.046;2022-10-16T04:15:41;3.50;;;2.40;;
5117;SDS011;2578;51.622;7.046;2022-10-16T04:18:07;3.40;;;2.60;;
5117;SDS011;2578;51.622;7.046;2022-10-16T04:20:33;3.90;;;2.73;;
5117;SDS011;2578;51.622;7.046;2022-10-16T04:22:59;3.30;;;2.20;;
5117;SDS011;2578;51.622;7.046;2022-10-16T04:25:25;3.20;;;2.10;;
5117;SDS011;2578;51.622;7.046;2022-10-16T04:27:52;3.40;;;2.50;;
5117;SDS011;2578;51.622;7.046;2022-10-16T04:30:18;3.33;;;2.50;;
5117;SDS011;2578;51.622;7.046;2022-10-16T04:32:47;3.90;;;3.20;;
5117;SDS011;2578;51.622;7.046;2022-10-16T04:35:14;3.30;;;2.50;;
5117;SDS011;2578;51.622;7.046;2022-10-16T04:37:40;3.30;;;2.40;;
5117;SDS011;2578;51.622;7.046;2022-10-16T04:40:06;3.60;;;3.00;;
5117;SDS011;2578;51.622;7.046;2022-10-16T04:42:32;3.27;;;2.40;;
5117;SDS011;2578;51.622;7.046;2022-10-16T04:44:58;4.43;;;2.83;;
5117;SDS011;2578;51.622;7.046;2022-10-16T04:47:23;3.37;;;2.50;;
5117;SDS011;2578;51.622;7.046;2022-10-16T04:49:49;3.30;;;2.47;;
5117;SDS011;2578;51.622;7.046;2022-10-16T04:52:15;4.10;;;2.70;;
5117;SDS011;2578;51.622;7.046;2022-10-16T04:54:41;9.00;;;2.77;;
5117;SDS011;2578;51.622;7.046;2022-10-16T04:57:06;3.40;;;2.60;;
5117;SDS011;2578;51.622;7.046;2022-10-16T04:59:32;3.30;;;2.50;;
5117;SDS011;2578;51.622;7.046;2022-10-16T05:01:57;3.40;;;2.60;;
5117;SDS011;2578;51.622;7.046;2022-10-16T05:04:23;3.23;;;2.40;;
5117;SDS011;2578;51.622;7.046;2022-10-16T05:06:49;4.17;;;2.80;;
5117;SDS011;2578;51.622;7.046;2022-10-16T05:09:14;3.30;;;2.40;;
5117;SDS011;2578;51.622;7.046;2022-10-16T05:11:40;3.30;;;2.50;;
5117;SDS011;2578;51.622;7.046;2022-10-16T05:14:06;3.40;;;2.70;;
5117;SDS011;2578;51.622;7.046;2022-10-16T05:16:32;4.13;;;2.70;;
5117;SDS011;2578;51.622;7.046;2022-10-16T05:18:57;3.50;;;2.70;;
5117;SDS011;2578;51.622;7.046;2022-10-16T05:21:23;3.80;;;2.73;;
5117;SDS011;2578;51.622;7.046;2022-10-16T05:23:48;4.10;;;3.40;;
5117;SDS011;2578;51.622;7.046;2022-10-16T05:26:14;3.37;;;2.60;;
5117;SDS011;2578;51.622;7.046;2022-10-16T05:28:40;3.30;;;2.40;;
5117;SDS011;2578;51.622;7.046;2022-10-16T05:31:06;3.60;;;2.70;;
5117;SDS011;2578;51.622;7.046;2022-10-16T05:33:33;3.40;;;2.70;;
5117;SDS011;2578;51.622;7.046;2022-10-16T05:36:05;3.30;;;2.50;;
5117;SDS011;2578;51.622;7.046;2022-10-16T05:38:33;3.30;;;2.50;;
5117;SDS011;2578;51.622;7.046;2022-10-16T05:41:02;3.50;;;2.90;;
5117;SDS011;2578;51.622;7.046;2022-10-16T05:43:29;3.30;;;2.60;;
5117;SDS011;2578;51.622;7.046;2022-10-16T05:45:56;3.30;;;2.70;;
5117;SDS011;2578;51.622;7.046;2022-10-16T05:48:24;3.37;;;2.60;;
5117;SDS011;2578;51.622;7.046;2022-10-16T05:51:03;3.30;;;2.50;;
5117;SDS011;2578;51.622;7.046;2022-10-16T05:53:31;3.50;;;2.70;;
5117;SDS011;2578;51.622;7.046;2022-10-16T05:55:58;3.20;;;2.40;;
5117;SDS011;2578;51.622;7.046;2022-10-16T05:58:25;3.40;;;2.60;;
5117;SDS011;2578;51.622;7.046;2022-10-16T06:00:54;3.27;;;2.30;;
5117;SDS011;2578;51.622;7.046;2022-10-16T06:03:20;3.30;;;2.40;;
5117;SDS011;2578;51.622;7.046;2022-10-16T06:05:46;3.37;;;2.50;;
5117;SDS011;2578;51.622;7.046;2022-10-16T06:08:12;3.30;;;2.50;;
5117;SDS011;2578;51.622;7.046;2022-10-16T06:10:37;3.30;;;2.60;;
5117;SDS011;2578;51.622;7.046;2022-10-16T06:13:03;3.30;;;2.33;;
5117;SDS011;2578;51.622;7.046;2022-10-16T06:15:29;5.20;;;3.57;;
5117;SDS011;2578;51.622;7.046;2022-10-16T06:17:54;3.30;;;2.40;;
5117;SDS011;2578;51.622;7.046;2022-10-16T06:20:20;3.20;;;2.20;;
5117;SDS011;2578;51.622;7.046;2022-10-16T06:22:48;3.20;;;2.30;;
5117;SDS011;2578;51.622;7.046;2022-10-16T06:25:14;3.17;;;2.13;;
5117;SDS011;2578;51.622;7.046;2022-10-16T06:27:39;3.30;;;2.40;;
5117;SDS011;2578;51.622;7.046;2022-10-16T06:30:06;3.20;;;2.20;;
5117;SDS011;2578;51.622;7.046;2022-10-16T06:32:32;3.27;;;2.20;;
5117;SDS011;2578;51.622;7.046;2022-10-16T06:34:58;3.13;;;2.10;;
5117;SDS011;2578;51.622;7.046;2022-10-16T06:37:23;3.20;;;2.00;;
5117;SDS011;2578;51.622;7.046;2022-10-16T06:39:49;3.20;;;2.13;;
5117;SDS011;2578;51.622;7.046;2022-10-16T06:42:17;3.20;;;2.10;;
5117;SDS011;2578;51.622;7.046;2022-10-16T06:44:43;3.23;;;2.17;;
5117;SDS011;2578;51.622;7.046;2022-10-16T06:47:08;3.20;;;2.20;;
5117;SDS011;2578;51.622;7.046;2022-10-16T06:49:34;3.30;;;2.10;;
5117;SDS011;2578;51.622;7.046;2022-10-16T06:52:00;3.23;;;2.17;;
5117;SDS011;2578;51.622;7.046;2022-10-16T06:54:26;3.20;;;2.20;;
5117;SDS011;2578;51.622;7.046;2022-10-16T06:56:52;3.37;;;2.50;;
5117;SDS011;2578;51.622;7.046;2022-10-16T06:59:19;3.13;;;2.20;;
5117;SDS011;2578;51.622;7.046;2022-10-16T07:01:48;3.30;;;2.23;;
5117;SDS011;2578;51.622;7.046;2022-10-16T07:04:14;9.80;;;2.63;;
5117;SDS011;2578;51.622;7.046;2022-10-16T07:06:39;3.20;;;2.30;;
5117;SDS011;2578;51.622;7.046;2022-10-16T07:09:06;3.40;;;2.60;;
5117;SDS011;2578;51.622;7.046;2022-10-16T07:11:38;3.30;;;2.33;;
5117;SDS011;2578;51.622;7.046;2022-10-16T07:14:05;3.30;;;2.30;;
5117;SDS011;2578;51.622;7.046;2022-10-16T07:16:37;3.30;;;2.30;;
5117;SDS011;2578;51.622;7.046;2022-10-16T07:19:03;3.27;;;2.37;;
5117;SDS011;2578;51.622;7.046;2022-10-16T07:21:29;3.50;;;2.50;;
5117;SDS011;2578;51.622;7.046;2022-10-16T07:24:00;3.50;;;2.70;;
5117;SDS011;2578;51.622;7.046;2022-10-16T07:26:27;3.50;;;2.60;;
5117;SDS011;2578;51.622;7.046;2022-10-16T07:28:54;3.40;;;2.60;;
5117;SDS011;2578;51.622;7.046;2022-10-16T07:31:21;3.23;;;2.30;;
5117;SDS011;2578;51.622;7.046;2022-10-16T07:33:48;3.80;;;3.40;;
5117;SDS011;2578;51.622;7.046;2022-10-16T07:36:15;4.80;;;4.40;;
5117;SDS011;2578;51.622;7.046;2022-10-16T07:38:42;6.10;;;5.60;;
5117;SDS011;2578;51.622;7.046;2022-10-16T07:41:12;7.63;;;7.03;;
5117;SDS011;2578;51.622;7.046;2022-10-16T07:43:39;8.40;;;7.83;;
5117;SDS011;2578;51.622;7.046;2022-10-16T07:46:05;10.30;;;9.57;;
5117;SDS011;2578;51.622;7.046;2022-10-16T07:48:32;10.87;;;10.17;;
5117;SDS011;2578;51.622;7.046;2022-10-16T07:51:02;12.10;;;11.40;;
5117;SDS011;2578;51.622;7.046;2022-10-16T07:53:30;9.90;;;9.30;;
5117;SDS011;2578;51.622;7.046;2022-10-16T07:55:59;9.80;;;9.20;;
5117;SDS011;2578;51.622;7.046;2022-10-16T07:58:26;11.13;;;10.33;;
5117;SDS011;2578;51.622;7.046;2022-10-16T08:00:53;10.50;;;9.90;;
5117;SDS011;2578;51.622;7.046;2022-10-16T08:03:18;12.60;;;11.80;;
5117;SDS011;2578;51.622;7.046;2022-10-16T08:05:44;11.70;;;11.00;;
5117;SDS011;2578;51.622;7.046;2022-10-16T08:08:13;11.90;;;11.20;;
5117;SDS011;2578;51.622;7.046;2022-10-16T08:10:39;12.80;;;12.00;;
5117;SDS011;2578;51.622;7.046;2022-10-16T08:13:05;12.80;;;12.00;;
5117;SDS011;2578;51.622;7.046;2022-10-16T08:15:31;14.73;;;13.67;;
5117;SDS011;2578;51.622;7.046;2022-10-16T08:17:58;13.90;;;13.00;;
5117;SDS011;2578;51.622;7.046;2022-10-16T08:20:28;12.70;;;11.90;;
5117;SDS011;2578;51.622;7.046;2022-10-16T08:22:55;13.83;;;12.93;;
5117;SDS011;2578;51.622;7.046;2022-10-16T08:25:21;12.50;;;11.70;;
5117;SDS011;2578;51.622;7.046;2022-10-16T08:27:48;12.30;;;11.50;;
5117;SDS011;2578;51.622;7.046;2022-10-16T08:30:14;16.60;;;15.50;;
5117;SDS011;2578;51.622;7.046;2022-10-16T08:32:40;14.67;;;13.53;;
5117;SDS011;2578;51.622;7.046;2022-10-16T08:35:07;12.70;;;11.90;;
5117;SDS011;2578;51.622;7.046;2022-10-16T08:37:34;13.27;;;12.37;;
5117;SDS011;2578;51.622;7.046;2022-10-16T08:40:00;12.73;;;11.93;;
5117;SDS011;2578;51.622;7.046;2022-10-16T08:50:44;10.90;;;10.20;;
5117;SDS011;2578;51.622;7.046;2022-10-16T08:53:18;11.00;;;10.10;;
5117;SDS011;2578;51.622;7.046;2022-10-16T08:55:54;18.13;;;11.10;;
5117;SDS011;2578;51.622;7.046;2022-10-16T08:58:25;11.67;;;10.87;;
5117;SDS011;2578;51.622;7.046;2022-10-16T09:00:56;12.57;;;11.77;;
5117;SDS011;2578;51.622;7.046;2022-10-16T09:06:24;13.67;;;12.83;;
5117;SDS011;2578;51.622;7.046;2022-10-16T09:16:54;17.30;;;16.10;;
5117;SDS011;2578;51.622;7.046;2022-10-16T09:21:53;17.77;;;16.40;;
5117;SDS011;2578;51.622;7.046;2022-10-16T09:24:21;17.90;;;16.60;;
5117;SDS011;2578;51.622;7.046;2022-10-16T09:26:51;16.57;;;15.47;;
5117;SDS011;2578;51.622;7.046;2022-10-16T09:29:18;17.97;;;16.67;;
5117;SDS011;2578;51.622;7.046;2022-10-16T09:31:46;16.60;;;15.43;;
5117;SDS011;2578;51.622;7.046;2022-10-16T09:36:55;16.30;;;15.20;;
5117;SDS011;2578;51.622;7.046;2022-10-16T09:39:23;15.90;;;14.90;;
5117;SDS011;2578;51.622;7.046;2022-10-16T09:41:49;15.93;;;14.93;;
5117;SDS011;2578;51.622;7.046;2022-10-16T09:44:18;18.83;;;17.10;;
5117;SDS011;2578;51.622;7.046;2022-10-16T09:46:48;17.30;;;16.10;;
5117;SDS011;2578;51.622;7.046;2022-10-16T09:49:23;20.60;;;19.00;;
5117;SDS011;2578;51.622;7.046;2022-10-16T09:51:51;16.40;;;15.30;;
5117;SDS011;2578;51.622;7.046;2022-10-16T09:54:28;18.27;;;16.77;;
5117;SDS011;2578;51.622;7.046;2022-10-16T09:57:03;17.37;;;15.97;;
5117;SDS011;2578;51.622;7.046;2022-10-16T09:59:32;15.97;;;14.80;;
5117;SDS011;2578;51.622;7.046;2022-10-16T10:02:01;18.23;;;16.93;;
5117;SDS011;2578;51.622;7.046;2022-10-16T10:04:39;16.70;;;15.40;;
5117;SDS011;2578;51.622;7.046;2022-10-16T10:07:16;15.50;;;14.13;;
5117;SDS011;2578;51.622;7.046;2022-10-16T10:09:48;16.00;;;14.83;;
5117;SDS011;2578;51.622;7.046;2022-10-16T10:12:21;15.80;;;14.70;;
5117;SDS011;2578;51.622;7.046;2022-10-16T10:14:51;15.57;;;14.20;;
5117;SDS011;2578;51.622;7.046;2022-10-16T10:17:20;14.70;;;13.80;;
5117;SDS011;2578;51.622;7.046;2022-10-16T10:27:40;12.50;;;11.70;;
5117;SDS011;2578;51.622;7.046;2022-10-16T10:49:42;16.97;;;15.87;;
5117;SDS011;2578;51.622;7.046;2022-10-16T10:54:56;18.20;;;16.90;;
5117;SDS011;2578;51.622;7.046;2022-10-16T10:58:01;18.90;;;17.60;;
5117;SDS011;2578;51.622;7.046;2022-10-16T11:00:31;19.70;;;18.30;;
5117;SDS011;2578;51.622;7.046;2022-10-16T11:06:18;19.77;;;18.37;;
5117;SDS011;2578;51.622;7.046;2022-10-16T11:11:40;21.80;;;20.20;;
5117;SDS011;2578;51.622;7.046;2022-10-16T11:16:51;21.00;;;19.50;;
5117;SDS011;2578;51.622;7.046;2022-10-16T11:21:51;19.90;;;18.50;;
5117;SDS011;2578;51.622;7.046;2022-10-16T11:27:16;17.50;;;16.30;;
5117;SDS011;2578;51.622;7.046;2022-10-16T11:29:50;19.63;;;18.23;;
5117;SDS011;2578;51.622;7.046;2022-10-16T11:32:22;19.00;;;17.70;;
5117;SDS011;2578;51.622;7.046;2022-10-16T11:34:55;19.30;;;18.00;;
5117;SDS011;2578;51.622;7.046;2022-10-16T11:37:30;19.30;;;18.00;;
5117;SDS011;2578;51.622;7.046;2022-10-16T11:40:48;18.90;;;17.60;;
5117;SDS011;2578;51.622;7.046;2022-10-16T11:43:01;19.10;;;17.70;;
5117;SDS011;2578;51.622;7.046;2022-10-16T11:45:39;19.90;;;18.50;;
5117;SDS011;2578;51.622;7.046;2022-10-16T11:51:11;22.20;;;20.50;;
5117;SDS011;2578;51.622;7.046;2022-10-16T11:56:26;25.97;;;23.97;;
5117;SDS011;2578;51.622;7.046;2022-10-16T11:59:00;24.87;;;22.90;;
5117;SDS011;2578;51.622;7.046;2022-10-16T12:01:33;23.70;;;21.90;;
5117;SDS011;2578;51.622;7.046;2022-10-16T12:06:57;23.67;;;21.87;;
5117;SDS011;2578;51.622;7.046;2022-10-16T12:09:31;25.63;;;23.63;;
5117;SDS011;2578;51.622;7.046;2022-10-16T12:11:59;26.20;;;24.10;;
5117;SDS011;2578;51.622;7.046;2022-10-16T12:19:45;26.10;;;24.10;;
5117;SDS011;2578;51.622;7.046;2022-10-16T12:22:27;25.13;;;23.23;;
5117;SDS011;2578;51.622;7.046;2022-10-16T12:24:55;24.80;;;22.90;;
5117;SDS011;2578;51.622;7.046;2022-10-16T12:27:24;24.53;;;22.63;;
5117;SDS011;2578;51.622;7.046;2022-10-16T12:29:54;23.77;;;21.97;;
5117;SDS011;2578;51.622;7.046;2022-10-16T12:32:32;23.63;;;21.83;;
5117;SDS011;2578;51.622;7.046;2022-10-16T12:35:00;22.80;;;21.10;;
5117;SDS011;2578;51.622;7.046;2022-10-16T12:37:32;22.50;;;20.80;;
5117;SDS011;2578;51.622;7.046;2022-10-16T12:40:04;22.70;;;21.00;;
5117;SDS011;2578;51.622;7.046;2022-10-16T12:42:51;21.27;;;19.77;;
5117;SDS011;2578;51.622;7.046;2022-10-16T12:45:30;21.60;;;20.00;;
5117;SDS011;2578;51.622;7.046;2022-10-16T12:47:57;20.77;;;19.27;;
5117;SDS011;2578;51.622;7.046;2022-10-16T12:50:28;21.30;;;19.70;;
5117;SDS011;2578;51.622;7.046;2022-10-16T12:52:55;22.90;;;21.20;;
5117;SDS011;2578;51.622;7.046;2022-10-16T12:55:21;23.60;;;21.80;;
5117;SDS011;2578;51.622;7.046;2022-10-16T13:00:39;24.33;;;22.23;;
5117;SDS011;2578;51.622;7.046;2022-10-16T13:11:07;25.30;;;23.40;;
5117;SDS011;2578;51.622;7.046;2022-10-16T13:16:34;24.00;;;22.10;;
5117;SDS011;2578;51.622;7.046;2022-10-16T13:27:55;23.10;;;21.40;;
5117;SDS011;2578;51.622;7.046;2022-10-16T13:30:22;24.83;;;22.30;;
5117;SDS011;2578;51.622;7.046;2022-10-16T13:33:04;23.00;;;21.30;;
5117;SDS011;2578;51.622;7.046;2022-10-16T13:35:35;23.90;;;22.00;;
5117;SDS011;2578;51.622;7.046;2022-10-16T13:38:05;26.03;;;23.93;;
5117;SDS011;2578;51.622;7.046;2022-10-16T13:40:47;23.67;;;21.87;;
5117;SDS011;2578;51.622;7.046;2022-10-16T13:43:22;23.50;;;21.70;;
5117;SDS011;2578;51.622;7.046;2022-10-16T13:48:24;21.40;;;19.80;;
5117;SDS011;2578;51.622;7.046;2022-10-16T13:50:59;19.83;;;18.23;;
5117;SDS011;2578;51.622;7.046;2022-10-16T13:53:26;18.80;;;17.40;;
5117;SDS011;2578;51.622;7.046;2022-10-16T13:55:51;17.83;;;16.53;;
5117;SDS011;2578;51.622;7.046;2022-10-16T13:58:17;18.20;;;16.90;;
5117;SDS011;2578;51.622;7.046;2022-10-16T14:03:42;19.90;;;18.50;;
5117;SDS011;2578;51.622;7.046;2022-10-16T14:06:12;19.40;;;18.10;;
5117;SDS011;2578;51.622;7.046;2022-10-16T14:08:44;20.60;;;19.20;;
5117;SDS011;2578;51.622;7.046;2022-10-16T14:11:19;22.17;;;20.57;;
5117;SDS011;2578;51.622;7.046;2022-10-16T14:13:47;22.20;;;20.60;;
5117;SDS011;2578;51.622;7.046;2022-10-16T14:16:17;22.30;;;20.50;;
5117;SDS011;2578;51.622;7.046;2022-10-16T14:18:57;23.00;;;21.10;;
5117;SDS011;2578;51.622;7.046;2022-10-16T14:21:25;23.37;;;21.47;;
5117;SDS011;2578;51.622;7.046;2022-10-16T14:23:51;23.20;;;21.30;;
5117;SDS011;2578;51.622;7.046;2022-10-16T14:26:18;23.67;;;21.77;;
5117;SDS011;2578;51.622;7.046;2022-10-16T14:28:47;23.90;;;21.90;;
5117;SDS011;2578;51.622;7.046;2022-10-16T14:31:26;22.10;;;20.40;;
5117;SDS011;2578;51.622;7.046;2022-10-16T14:33:54;21.70;;;20.00;;
5117;SDS011;2578;51.622;7.046;2022-10-16T14:36:20;21.03;;;19.43;;
5117;SDS011;2578;51.622;7.046;2022-10-16T14:41:20;19.60;;;18.10;;
5117;SDS011;2578;51.622;7.046;2022-10-16T14:43:49;18.80;;;17.40;;
5117;SDS011;2578;51.622;7.046;2022-10-16T14:46:21;17.30;;;16.10;;
5117;SDS011;2578;51.622;7.046;2022-10-16T14:48:59;17.87;;;16.57;;
5117;SDS011;2578;51.622;7.046;2022-10-16T14:51:28;17.40;;;16.20;;
5117;SDS011;2578;51.622;7.046;2022-10-16T14:53:54;17.60;;;16.30;;
5117;SDS011;2578;51.622;7.046;2022-10-16T14:56:21;17.17;;;15.97;;
5117;SDS011;2578;51.622;7.046;2022-10-16T14:58:53;16.60;;;15.50;;
5117;SDS011;2578;51.622;7.046;2022-10-16T15:01:20;16.80;;;15.60;;
5117;SDS011;2578;51.622;7.046;2022-10-16T15:03:46;16.90;;;15.70;;
5117;SDS011;2578;51.622;7.046;2022-10-16T15:06:13;17.50;;;16.30;;
5117;SDS011;2578;51.622;7.046;2022-10-16T15:08:40;18.10;;;16.80;;
5117;SDS011;2578;51.622;7.046;2022-10-16T15:11:12;16.40;;;15.30;;
5117;SDS011;2578;51.622;7.046;2022-10-16T15:13:40;16.80;;;15.60;;
5117;SDS011;2578;51.622;7.046;2022-10-16T15:16:14;18.23;;;15.57;;
5117;SDS011;2578;51.622;7.046;2022-10-16T15:18:41;15.80;;;14.73;;
5117;SDS011;2578;51.622;7.046;2022-10-16T15:21:07;15.70;;;14.70;;
5117;SDS011;2578;51.622;7.046;2022-10-16T15:23:36;16.00;;;14.90;;
5117;SDS011;2578;51.622;7.046;2022-10-16T15:26:02;15.60;;;14.60;;
5117;SDS011;2578;51.622;7.046;2022-10-16T15:28:27;14.10;;;13.20;;
5117;SDS011;2578;51.622;7.046;2022-10-16T15:30:54;13.00;;;12.20;;
5117;SDS011;2578;51.622;7.046;2022-10-16T15:33:22;13.00;;;12.20;;
5117;SDS011;2578;51.622;7.046;2022-10-16T15:35:50;12.70;;;11.90;;
5117;SDS011;2578;51.622;7.046;2022-10-16T15:38:17;12.10;;;11.40;;
5117;SDS011;2578;51.622;7.046;2022-10-16T15:40:45;12.60;;;11.80;;
5117;SDS011;2578;51.622;7.046;2022-10-16T15:43:11;12.90;;;12.10;;
5117;SDS011;2578;51.622;7.046;2022-10-16T15:45:37;12.50;;;11.70;;
5117;SDS011;2578;51.622;7.046;2022-10-16T15:48:03;12.60;;;11.80;;
5117;SDS011;2578;51.622;7.046;2022-10-16T15:50:29;12.50;;;11.70;;
5117;SDS011;2578;51.622;7.046;2022-10-16T15:52:56;12.70;;;11.90;;
5117;SDS011;2578;51.622;7.046;2022-10-16T15:55:22;11.80;;;11.10;;
5117;SDS011;2578;51.622;7.046;2022-10-16T15:57:48;11.50;;;10.80;;
5117;SDS011;2578;51.622;7.046;2022-10-16T16:00:17;11.20;;;10.50;;
5117;SDS011;2578;51.622;7.046;2022-10-16T16:02:51;11.50;;;10.80;;
5117;SDS011;2578;51.622;7.046;2022-10-16T16:05:18;10.40;;;9.80;;
5117;SDS011;2578;51.622;7.046;2022-10-16T16:07:44;9.60;;;9.00;;
5117;SDS011;2578;51.622;7.046;2022-10-16T16:10:10;9.20;;;8.60;;
5117;SDS011;2578;51.622;7.046;2022-10-16T16:12:36;9.80;;;9.20;;
5117;SDS011;2578;51.622;7.046;2022-10-16T16:15:06;9.70;;;9.10;;
5117;SDS011;2578;51.622;7.046;2022-10-16T16:17:33;9.13;;;8.53;;
5117;SDS011;2578;51.622;7.046;2022-10-16T16:20:00;9.30;;;8.70;;
5117;SDS011;2578;51.622;7.046;2022-10-16T16:22:26;9.10;;;8.50;;
5117;SDS011;2578;51.622;7.046;2022-10-16T16:24:52;8.83;;;8.27;;
5117;SDS011;2578;51.622;7.046;2022-10-16T16:27:18;8.27;;;7.77;;
5117;SDS011;2578;51.622;7.046;2022-10-16T16:29:44;7.97;;;7.47;;
5117;SDS011;2578;51.622;7.046;2022-10-16T16:32:11;7.40;;;6.90;;
5117;SDS011;2578;51.622;7.046;2022-10-16T16:34:36;7.10;;;6.60;;
5117;SDS011;2578;51.622;7.046;2022-10-16T16:37:02;7.10;;;6.60;;
5117;SDS011;2578;51.622;7.046;2022-10-16T16:39:28;6.43;;;6.00;;
5117;SDS011;2578;51.622;7.046;2022-10-16T16:41:55;5.60;;;5.20;;
5117;SDS011;2578;51.622;7.046;2022-10-16T16:44:23;4.87;;;4.47;;
5117;SDS011;2578;51.622;7.046;2022-10-16T16:46:49;4.40;;;4.00;;
5117;SDS011;2578;51.622;7.046;2022-10-16T16:49:15;3.80;;;3.50;;
5117;SDS011;2578;51.622;7.046;2022-10-16T16:51:41;3.50;;;3.20;;
5117;SDS011;2578;51.622;7.046;2022-10-16T16:54:07;3.80;;;3.50;;
5117;SDS011;2578;51.622;7.046;2022-10-16T16:56:34;3.30;;;2.80;;
5117;SDS011;2578;51.622;7.046;2022-10-16T16:59:00;3.20;;;2.60;;
5117;SDS011;2578;51.622;7.046;2022-10-16T17:01:26;3.07;;;2.33;;
5117;SDS011;2578;51.622;7.046;2022-10-16T17:03:53;3.00;;;2.20;;
5117;SDS011;2578;51.622;7.046;2022-10-16T17:06:22;3.00;;;2.23;;
5117;SDS011;2578;51.622;7.046;2022-10-16T17:08:50;2.87;;;1.83;;
5117;SDS011;2578;51.622;7.046;2022-10-16T17:11:17;2.80;;;1.70;;
5117;SDS011;2578;51.622;7.046;2022-10-16T17:13:47;2.87;;;1.80;;
5117;SDS011;2578;51.622;7.046;2022-10-16T17:16:14;2.87;;;1.80;;
5117;SDS011;2578;51.622;7.046;2022-10-16T17:18:41;2.80;;;1.80;;
5117;SDS011;2578;51.622;7.046;2022-10-16T17:21:07;2.87;;;1.80;;
5117;SDS011;2578;51.622;7.046;2022-10-16T17:23:34;2.83;;;1.70;;
5117;SDS011;2578;51.622;7.046;2022-10-16T17:26:05;2.80;;;1.70;;
5117;SDS011;2578;51.622;7.046;2022-10-16T17:28:32;3.10;;;1.80;;